sensor_id;sensor_type;location;lat;lon;timestamp;P1;durP1;ratioP1;P2;durP2;ratioP2
36989;SDS011;22898;52.102;5.776;2024-02-16T00:00:16;2.72;;;1.48;;
36989;SDS011;22898;52.102;5.776;2024-02-16T00:02:43;3.10;;;1.00;;
36989;SDS011;22898;52.102;5.776;2024-02-16T00:05:11;2.60;;;1.65;;
36989;SDS011;22898;52.102;5.776;2024-02-16T00:07:37;2.90;;;1.30;;
36989;SDS011;22898;52.102;5.776;2024-02-16T00:10:03;4.22;;;1.42;;
36989;SDS011;22898;52.102;5.776;2024-02-16T00:12:30;3.75;;;1.38;;
36989;SDS011;22898;52.102;5.776;2024-02-16T00:14:57;1.27;;;1.02;;
36989;SDS011;22898;52.102;5.776;2024-02-16T00:17:24;1.48;;;1.05;;
36989;SDS011;22898;52.102;5.776;2024-02-16T00:19:53;6.07;;;1.30;;
36989;SDS011;22898;52.102;5.776;2024-02-16T00:22:19;2.83;;;1.25;;
36989;SDS011;22898;52.102;5.776;2024-02-16T00:24:45;3.75;;;1.65;;
36989;SDS011;22898;52.102;5.776;2024-02-16T00:27:11;1.60;;;1.20;;
36989;SDS011;22898;52.102;5.776;2024-02-16T00:29:38;2.75;;;1.63;;
36989;SDS011;22898;52.102;5.776;2024-02-16T00:32:04;4.45;;;1.50;;
36989;SDS011;22898;52.102;5.776;2024-02-16T00:34:36;3.80;;;1.10;;
36989;SDS011;22898;52.102;5.776;2024-02-16T00:37:02;2.65;;;1.50;;
36989;SDS011;22898;52.102;5.776;2024-02-16T00:39:35;3.10;;;2.05;;
36989;SDS011;22898;52.102;5.776;2024-02-16T00:42:01;2.28;;;1.27;;
36989;SDS011;22898;52.102;5.776;2024-02-16T00:44:26;4.40;;;1.40;;
36989;SDS011;22898;52.102;5.776;2024-02-16T00:46:52;3.63;;;1.27;;
36989;SDS011;22898;52.102;5.776;2024-02-16T00:49:18;2.47;;;1.25;;
36989;SDS011;22898;52.102;5.776;2024-02-16T00:51:43;3.45;;;1.23;;
36989;SDS011;22898;52.102;5.776;2024-02-16T00:54:09;1.80;;;1.25;;
36989;SDS011;22898;52.102;5.776;2024-02-16T00:56:34;2.88;;;1.33;;
36989;SDS011;22898;52.102;5.776;2024-02-16T00:59:00;4.05;;;1.20;;
36989;SDS011;22898;52.102;5.776;2024-02-16T01:01:26;2.72;;;1.52;;
36989;SDS011;22898;52.102;5.776;2024-02-16T01:03:52;3.67;;;1.40;;
36989;SDS011;22898;52.102;5.776;2024-02-16T01:06:18;4.30;;;1.45;;
36989;SDS011;22898;52.102;5.776;2024-02-16T01:08:44;2.70;;;1.20;;
36989;SDS011;22898;52.102;5.776;2024-02-16T01:11:10;2.15;;;1.15;;
36989;SDS011;22898;52.102;5.776;2024-02-16T01:13:35;3.78;;;1.27;;
36989;SDS011;22898;52.102;5.776;2024-02-16T01:16:02;3.25;;;1.35;;
36989;SDS011;22898;52.102;5.776;2024-02-16T01:18:28;1.33;;;1.00;;
36989;SDS011;22898;52.102;5.776;2024-02-16T01:20:55;1.88;;;1.33;;
36989;SDS011;22898;52.102;5.776;2024-02-16T01:23:20;1.85;;;1.25;;
36989;SDS011;22898;52.102;5.776;2024-02-16T01:25:46;1.90;;;1.10;;
36989;SDS011;22898;52.102;5.776;2024-02-16T01:28:12;6.53;;;1.38;;
36989;SDS011;22898;52.102;5.776;2024-02-16T01:30:39;2.53;;;1.08;;
36989;SDS011;22898;52.102;5.776;2024-02-16T01:33:05;2.78;;;1.23;;
36989;SDS011;22898;52.102;5.776;2024-02-16T01:35:32;2.70;;;1.40;;
36989;SDS011;22898;52.102;5.776;2024-02-16T01:37:58;1.48;;;1.08;;
36989;SDS011;22898;52.102;5.776;2024-02-16T01:40:23;3.90;;;1.55;;
36989;SDS011;22898;52.102;5.776;2024-02-16T01:42:51;3.13;;;1.38;;
36989;SDS011;22898;52.102;5.776;2024-02-16T01:45:18;2.92;;;1.30;;
36989;SDS011;22898;52.102;5.776;2024-02-16T01:47:43;4.72;;;2.10;;
36989;SDS011;22898;52.102;5.776;2024-02-16T01:50:12;2.88;;;1.50;;
36989;SDS011;22898;52.102;5.776;2024-02-16T01:52:39;2.20;;;1.27;;
36989;SDS011;22898;52.102;5.776;2024-02-16T01:55:05;2.40;;;1.60;;
36989;SDS011;22898;52.102;5.776;2024-02-16T01:57:40;3.55;;;1.40;;
36989;SDS011;22898;52.102;5.776;2024-02-16T02:00:08;2.95;;;1.35;;
36989;SDS011;22898;52.102;5.776;2024-02-16T02:02:35;2.42;;;1.52;;
36989;SDS011;22898;52.102;5.776;2024-02-16T02:05:01;2.60;;;1.40;;
36989;SDS011;22898;52.102;5.776;2024-02-16T02:07:27;1.85;;;1.10;;
36989;SDS011;22898;52.102;5.776;2024-02-16T02:09:53;2.85;;;1.17;;
36989;SDS011;22898;52.102;5.776;2024-02-16T02:12:19;2.25;;;1.15;;
36989;SDS011;22898;52.102;5.776;2024-02-16T02:14:45;3.72;;;1.50;;
36989;SDS011;22898;52.102;5.776;2024-02-16T02:17:13;2.58;;;1.05;;
36989;SDS011;22898;52.102;5.776;2024-02-16T02:19:39;3.65;;;1.30;;
36989;SDS011;22898;52.102;5.776;2024-02-16T02:22:18;3.20;;;1.30;;
36989;SDS011;22898;52.102;5.776;2024-02-16T02:24:44;2.22;;;1.23;;
36989;SDS011;22898;52.102;5.776;2024-02-16T02:27:11;2.85;;;1.48;;
36989;SDS011;22898;52.102;5.776;2024-02-16T02:29:38;2.58;;;1.50;;
36989;SDS011;22898;52.102;5.776;2024-02-16T02:32:04;3.80;;;1.48;;
36989;SDS011;22898;52.102;5.776;2024-02-16T02:34:30;2.83;;;1.27;;
36989;SDS011;22898;52.102;5.776;2024-02-16T02:36:56;6.43;;;1.52;;
36989;SDS011;22898;52.102;5.776;2024-02-16T02:39:21;3.15;;;1.55;;
36989;SDS011;22898;52.102;5.776;2024-02-16T02:41:47;2.15;;;1.15;;
36989;SDS011;22898;52.102;5.776;2024-02-16T02:44:12;3.90;;;1.88;;
36989;SDS011;22898;52.102;5.776;2024-02-16T02:46:38;5.30;;;1.80;;
36989;SDS011;22898;52.102;5.776;2024-02-16T02:49:04;3.03;;;1.35;;
36989;SDS011;22898;52.102;5.776;2024-02-16T02:51:29;2.67;;;1.20;;
36989;SDS011;22898;52.102;5.776;2024-02-16T02:53:55;3.33;;;1.30;;
36989;SDS011;22898;52.102;5.776;2024-02-16T02:56:21;5.07;;;1.63;;
36989;SDS011;22898;52.102;5.776;2024-02-16T02:58:47;2.45;;;1.30;;
36989;SDS011;22898;52.102;5.776;2024-02-16T03:01:12;1.23;;;1.00;;
36989;SDS011;22898;52.102;5.776;2024-02-16T03:03:39;3.83;;;1.48;;
36989;SDS011;22898;52.102;5.776;2024-02-16T03:06:06;3.40;;;1.60;;
36989;SDS011;22898;52.102;5.776;2024-02-16T03:08:32;1.85;;;1.27;;
36989;SDS011;22898;52.102;5.776;2024-02-16T03:10:58;2.53;;;1.50;;
36989;SDS011;22898;52.102;5.776;2024-02-16T03:13:25;2.83;;;1.60;;
36989;SDS011;22898;52.102;5.776;2024-02-16T03:15:52;1.83;;;1.25;;
36989;SDS011;22898;52.102;5.776;2024-02-16T03:18:18;3.22;;;1.40;;
36989;SDS011;22898;52.102;5.776;2024-02-16T03:20:44;1.83;;;1.40;;
36989;SDS011;22898;52.102;5.776;2024-02-16T03:23:14;2.45;;;1.55;;
36989;SDS011;22898;52.102;5.776;2024-02-16T03:25:40;2.03;;;1.25;;
36989;SDS011;22898;52.102;5.776;2024-02-16T03:28:05;4.10;;;1.48;;
36989;SDS011;22898;52.102;5.776;2024-02-16T03:30:34;2.35;;;1.48;;
36989;SDS011;22898;52.102;5.776;2024-02-16T03:33:00;2.55;;;1.35;;
36989;SDS011;22898;52.102;5.776;2024-02-16T03:35:25;2.53;;;1.33;;
36989;SDS011;22898;52.102;5.776;2024-02-16T03:37:52;2.70;;;1.20;;
36989;SDS011;22898;52.102;5.776;2024-02-16T03:40:18;2.10;;;1.40;;
36989;SDS011;22898;52.102;5.776;2024-02-16T03:42:43;3.50;;;2.10;;
36989;SDS011;22898;52.102;5.776;2024-02-16T03:45:09;1.80;;;1.40;;
36989;SDS011;22898;52.102;5.776;2024-02-16T03:47:36;2.70;;;1.25;;
36989;SDS011;22898;52.102;5.776;2024-02-16T03:50:02;6.40;;;2.50;;
36989;SDS011;22898;52.102;5.776;2024-02-16T03:52:28;3.05;;;1.50;;
36989;SDS011;22898;52.102;5.776;2024-02-16T03:54:53;2.80;;;1.65;;
36989;SDS011;22898;52.102;5.776;2024-02-16T03:57:19;6.13;;;1.40;;
36989;SDS011;22898;52.102;5.776;2024-02-16T03:59:45;4.00;;;1.55;;
36989;SDS011;22898;52.102;5.776;2024-02-16T04:02:11;2.30;;;1.60;;
36989;SDS011;22898;52.102;5.776;2024-02-16T04:04:38;1.58;;;1.30;;
36989;SDS011;22898;52.102;5.776;2024-02-16T04:07:04;3.05;;;1.33;;
36989;SDS011;22898;52.102;5.776;2024-02-16T04:09:31;3.05;;;1.23;;
36989;SDS011;22898;52.102;5.776;2024-02-16T04:11:58;2.97;;;1.40;;
36989;SDS011;22898;52.102;5.776;2024-02-16T04:14:23;4.57;;;1.75;;
36989;SDS011;22898;52.102;5.776;2024-02-16T04:16:49;3.35;;;1.42;;
36989;SDS011;22898;52.102;5.776;2024-02-16T04:19:15;2.97;;;1.45;;
36989;SDS011;22898;52.102;5.776;2024-02-16T04:21:40;2.45;;;1.52;;
36989;SDS011;22898;52.102;5.776;2024-02-16T04:24:06;2.30;;;1.08;;
36989;SDS011;22898;52.102;5.776;2024-02-16T04:26:32;1.70;;;1.20;;
36989;SDS011;22898;52.102;5.776;2024-02-16T04:28:58;2.60;;;1.25;;
36989;SDS011;22898;52.102;5.776;2024-02-16T04:31:24;2.92;;;1.35;;
36989;SDS011;22898;52.102;5.776;2024-02-16T04:33:49;4.47;;;1.58;;
36989;SDS011;22898;52.102;5.776;2024-02-16T04:36:15;2.78;;;1.60;;
36989;SDS011;22898;52.102;5.776;2024-02-16T04:38:41;6.18;;;1.70;;
36989;SDS011;22898;52.102;5.776;2024-02-16T04:41:07;2.35;;;1.42;;
36989;SDS011;22898;52.102;5.776;2024-02-16T04:43:33;3.55;;;1.80;;
36989;SDS011;22898;52.102;5.776;2024-02-16T04:45:59;4.95;;;1.70;;
36989;SDS011;22898;52.102;5.776;2024-02-16T04:48:25;2.95;;;1.33;;
36989;SDS011;22898;52.102;5.776;2024-02-16T04:50:51;2.40;;;1.15;;
36989;SDS011;22898;52.102;5.776;2024-02-16T04:53:16;2.47;;;1.65;;
36989;SDS011;22898;52.102;5.776;2024-02-16T04:55:42;6.20;;;2.67;;
36989;SDS011;22898;52.102;5.776;2024-02-16T04:58:08;4.18;;;1.27;;
36989;SDS011;22898;52.102;5.776;2024-02-16T05:00:37;2.63;;;1.30;;
36989;SDS011;22898;52.102;5.776;2024-02-16T05:03:03;3.20;;;1.40;;
36989;SDS011;22898;52.102;5.776;2024-02-16T05:05:29;6.43;;;1.52;;
36989;SDS011;22898;52.102;5.776;2024-02-16T05:07:55;3.47;;;1.60;;
36989;SDS011;22898;52.102;5.776;2024-02-16T05:10:22;2.47;;;1.42;;
36989;SDS011;22898;52.102;5.776;2024-02-16T05:12:48;2.75;;;1.67;;
36989;SDS011;22898;52.102;5.776;2024-02-16T05:15:13;2.95;;;1.58;;
36989;SDS011;22898;52.102;5.776;2024-02-16T05:17:39;2.55;;;1.42;;
36989;SDS011;22898;52.102;5.776;2024-02-16T05:20:11;6.45;;;1.90;;
36989;SDS011;22898;52.102;5.776;2024-02-16T05:22:44;3.92;;;1.42;;
36989;SDS011;22898;52.102;5.776;2024-02-16T05:25:11;4.63;;;1.95;;
36989;SDS011;22898;52.102;5.776;2024-02-16T05:27:37;2.92;;;1.50;;
36989;SDS011;22898;52.102;5.776;2024-02-16T05:30:03;2.08;;;1.50;;
36989;SDS011;22898;52.102;5.776;2024-02-16T05:32:33;5.90;;;1.90;;
36989;SDS011;22898;52.102;5.776;2024-02-16T05:35:04;4.85;;;2.10;;
36989;SDS011;22898;52.102;5.776;2024-02-16T05:37:38;3.47;;;1.60;;
36989;SDS011;22898;52.102;5.776;2024-02-16T05:40:13;6.43;;;1.67;;
36989;SDS011;22898;52.102;5.776;2024-02-16T05:42:53;4.00;;;1.60;;
36989;SDS011;22898;52.102;5.776;2024-02-16T05:45:22;1.77;;;1.35;;
36989;SDS011;22898;52.102;5.776;2024-02-16T05:47:48;3.40;;;1.70;;
36989;SDS011;22898;52.102;5.776;2024-02-16T05:50:15;2.35;;;1.50;;
36989;SDS011;22898;52.102;5.776;2024-02-16T05:52:41;4.35;;;1.98;;
36989;SDS011;22898;52.102;5.776;2024-02-16T05:55:08;3.78;;;1.92;;
36989;SDS011;22898;52.102;5.776;2024-02-16T05:57:35;5.60;;;1.83;;
36989;SDS011;22898;52.102;5.776;2024-02-16T06:00:02;2.90;;;1.30;;
36989;SDS011;22898;52.102;5.776;2024-02-16T06:02:32;3.33;;;1.58;;
36989;SDS011;22898;52.102;5.776;2024-02-16T06:04:58;4.90;;;1.65;;
36989;SDS011;22898;52.102;5.776;2024-02-16T06:07:25;4.57;;;1.30;;
36989;SDS011;22898;52.102;5.776;2024-02-16T06:09:50;2.85;;;1.55;;
36989;SDS011;22898;52.102;5.776;2024-02-16T06:12:16;3.13;;;1.83;;
36989;SDS011;22898;52.102;5.776;2024-02-16T06:14:42;3.58;;;2.00;;
36989;SDS011;22898;52.102;5.776;2024-02-16T06:17:08;3.75;;;2.38;;
36989;SDS011;22898;52.102;5.776;2024-02-16T06:19:34;3.47;;;1.73;;
36989;SDS011;22898;52.102;5.776;2024-02-16T06:22:00;2.78;;;1.80;;
36989;SDS011;22898;52.102;5.776;2024-02-16T06:24:26;2.85;;;1.60;;
36989;SDS011;22898;52.102;5.776;2024-02-16T06:26:52;3.08;;;1.42;;
36989;SDS011;22898;52.102;5.776;2024-02-16T06:29:19;2.22;;;1.50;;
36989;SDS011;22898;52.102;5.776;2024-02-16T06:31:45;5.25;;;2.35;;
36989;SDS011;22898;52.102;5.776;2024-02-16T06:34:12;3.33;;;1.60;;
36989;SDS011;22898;52.102;5.776;2024-02-16T06:36:44;2.72;;;1.52;;
36989;SDS011;22898;52.102;5.776;2024-02-16T06:39:10;6.30;;;1.77;;
36989;SDS011;22898;52.102;5.776;2024-02-16T06:41:36;3.08;;;1.80;;
36989;SDS011;22898;52.102;5.776;2024-02-16T06:44:02;4.28;;;1.95;;
36989;SDS011;22898;52.102;5.776;2024-02-16T06:46:29;3.78;;;1.67;;
36989;SDS011;22898;52.102;5.776;2024-02-16T06:48:55;4.15;;;1.90;;
36989;SDS011;22898;52.102;5.776;2024-02-16T06:51:24;2.90;;;1.63;;
36989;SDS011;22898;52.102;5.776;2024-02-16T06:53:51;4.18;;;1.70;;
36989;SDS011;22898;52.102;5.776;2024-02-16T06:56:17;3.30;;;2.00;;
36989;SDS011;22898;52.102;5.776;2024-02-16T06:58:43;3.80;;;1.73;;
36989;SDS011;22898;52.102;5.776;2024-02-16T07:01:10;5.10;;;1.90;;
36989;SDS011;22898;52.102;5.776;2024-02-16T07:03:37;4.70;;;1.90;;
36989;SDS011;22898;52.102;5.776;2024-02-16T07:06:03;2.97;;;1.45;;
36989;SDS011;22898;52.102;5.776;2024-02-16T07:08:29;4.55;;;2.20;;
36989;SDS011;22898;52.102;5.776;2024-02-16T07:10:55;4.75;;;2.22;;
36989;SDS011;22898;52.102;5.776;2024-02-16T07:13:22;1.88;;;1.52;;
36989;SDS011;22898;52.102;5.776;2024-02-16T07:15:47;2.83;;;1.48;;
36989;SDS011;22898;52.102;5.776;2024-02-16T07:18:13;4.78;;;1.92;;
36989;SDS011;22898;52.102;5.776;2024-02-16T07:20:40;6.60;;;2.05;;
36989;SDS011;22898;52.102;5.776;2024-02-16T07:23:05;5.90;;;2.40;;
36989;SDS011;22898;52.102;5.776;2024-02-16T07:25:31;4.22;;;2.17;;
36989;SDS011;22898;52.102;5.776;2024-02-16T07:27:57;2.45;;;1.80;;
36989;SDS011;22898;52.102;5.776;2024-02-16T07:30:22;3.33;;;1.75;;
36989;SDS011;22898;52.102;5.776;2024-02-16T07:32:48;3.75;;;1.98;;
36989;SDS011;22898;52.102;5.776;2024-02-16T07:35:15;3.80;;;1.83;;
36989;SDS011;22898;52.102;5.776;2024-02-16T07:37:41;5.45;;;1.80;;
36989;SDS011;22898;52.102;5.776;2024-02-16T07:40:08;3.67;;;1.80;;
36989;SDS011;22898;52.102;5.776;2024-02-16T07:42:37;4.93;;;2.13;;
36989;SDS011;22898;52.102;5.776;2024-02-16T07:45:04;5.20;;;2.22;;
36989;SDS011;22898;52.102;5.776;2024-02-16T07:47:31;7.72;;;2.20;;
36989;SDS011;22898;52.102;5.776;2024-02-16T07:49:57;6.45;;;1.85;;
36989;SDS011;22898;52.102;5.776;2024-02-16T07:52:22;4.72;;;2.08;;
36989;SDS011;22898;52.102;5.776;2024-02-16T07:54:48;5.15;;;1.52;;
36989;SDS011;22898;52.102;5.776;2024-02-16T07:57:16;2.78;;;1.70;;
36989;SDS011;22898;52.102;5.776;2024-02-16T07:59:42;3.60;;;1.77;;
36989;SDS011;22898;52.102;5.776;2024-02-16T08:02:08;3.75;;;1.70;;
36989;SDS011;22898;52.102;5.776;2024-02-16T08:04:34;2.92;;;1.70;;
36989;SDS011;22898;52.102;5.776;2024-02-16T08:07:00;4.93;;;2.17;;
36989;SDS011;22898;52.102;5.776;2024-02-16T08:09:26;4.30;;;1.90;;
36989;SDS011;22898;52.102;5.776;2024-02-16T08:11:52;5.35;;;2.17;;
36989;SDS011;22898;52.102;5.776;2024-02-16T08:14:18;4.18;;;1.48;;
36989;SDS011;22898;52.102;5.776;2024-02-16T08:16:43;2.65;;;1.65;;
36989;SDS011;22898;52.102;5.776;2024-02-16T08:19:10;4.78;;;1.90;;
36989;SDS011;22898;52.102;5.776;2024-02-16T08:21:35;3.20;;;2.10;;
36989;SDS011;22898;52.102;5.776;2024-02-16T08:24:01;6.60;;;1.80;;
36989;SDS011;22898;52.102;5.776;2024-02-16T08:26:27;4.63;;;2.28;;
36989;SDS011;22898;52.102;5.776;2024-02-16T08:28:53;4.50;;;2.08;;
36989;SDS011;22898;52.102;5.776;2024-02-16T08:31:18;4.20;;;1.95;;
36989;SDS011;22898;52.102;5.776;2024-02-16T08:33:44;3.58;;;1.70;;
36989;SDS011;22898;52.102;5.776;2024-02-16T08:36:11;5.15;;;2.13;;
36989;SDS011;22898;52.102;5.776;2024-02-16T08:38:37;3.85;;;1.85;;
36989;SDS011;22898;52.102;5.776;2024-02-16T08:41:03;4.25;;;2.63;;
36989;SDS011;22898;52.102;5.776;2024-02-16T08:43:28;4.15;;;1.90;;
36989;SDS011;22898;52.102;5.776;2024-02-16T08:45:54;4.15;;;2.05;;
36989;SDS011;22898;52.102;5.776;2024-02-16T08:48:20;3.92;;;2.17;;
36989;SDS011;22898;52.102;5.776;2024-02-16T08:50:48;3.38;;;1.65;;
36989;SDS011;22898;52.102;5.776;2024-02-16T08:53:13;2.60;;;1.92;;
36989;SDS011;22898;52.102;5.776;2024-02-16T08:55:41;4.35;;;2.03;;
36989;SDS011;22898;52.102;5.776;2024-02-16T08:58:07;6.47;;;1.98;;
36989;SDS011;22898;52.102;5.776;2024-02-16T09:00:33;3.50;;;1.73;;
36989;SDS011;22898;52.102;5.776;2024-02-16T09:02:59;6.72;;;2.80;;
36989;SDS011;22898;52.102;5.776;2024-02-16T09:05:27;4.22;;;1.63;;
36989;SDS011;22898;52.102;5.776;2024-02-16T09:07:53;3.65;;;2.05;;
36989;SDS011;22898;52.102;5.776;2024-02-16T09:10:19;5.57;;;2.97;;
36989;SDS011;22898;52.102;5.776;2024-02-16T09:12:45;3.33;;;1.90;;
36989;SDS011;22898;52.102;5.776;2024-02-16T09:15:11;4.72;;;2.42;;
36989;SDS011;22898;52.102;5.776;2024-02-16T09:17:37;4.05;;;2.17;;
36989;SDS011;22898;52.102;5.776;2024-02-16T09:20:03;7.53;;;2.38;;
36989;SDS011;22898;52.102;5.776;2024-02-16T09:22:29;3.92;;;2.17;;
36989;SDS011;22898;52.102;5.776;2024-02-16T09:24:55;5.45;;;2.35;;
36989;SDS011;22898;52.102;5.776;2024-02-16T09:27:24;3.40;;;1.73;;
36989;SDS011;22898;52.102;5.776;2024-02-16T09:29:50;5.15;;;1.83;;
36989;SDS011;22898;52.102;5.776;2024-02-16T09:32:16;6.13;;;2.30;;
36989;SDS011;22898;52.102;5.776;2024-02-16T09:34:41;4.30;;;2.15;;
36989;SDS011;22898;52.102;5.776;2024-02-16T09:37:07;4.07;;;2.20;;
36989;SDS011;22898;52.102;5.776;2024-02-16T09:39:33;4.40;;;2.40;;
36989;SDS011;22898;52.102;5.776;2024-02-16T09:41:59;3.67;;;2.20;;
36989;SDS011;22898;52.102;5.776;2024-02-16T09:44:25;2.75;;;1.90;;
36989;SDS011;22898;52.102;5.776;2024-02-16T09:46:53;2.30;;;1.75;;
36989;SDS011;22898;52.102;5.776;2024-02-16T09:49:20;4.90;;;2.25;;
36989;SDS011;22898;52.102;5.776;2024-02-16T09:51:45;5.65;;;2.40;;
36989;SDS011;22898;52.102;5.776;2024-02-16T09:54:11;3.53;;;2.22;;
36989;SDS011;22898;52.102;5.776;2024-02-16T09:56:37;4.00;;;2.08;;
36989;SDS011;22898;52.102;5.776;2024-02-16T09:59:03;4.07;;;2.30;;
36989;SDS011;22898;52.102;5.776;2024-02-16T10:01:28;6.95;;;2.72;;
36989;SDS011;22898;52.102;5.776;2024-02-16T10:03:59;5.20;;;2.42;;
36989;SDS011;22898;52.102;5.776;2024-02-16T10:06:32;5.43;;;2.10;;
36989;SDS011;22898;52.102;5.776;2024-02-16T10:08:58;5.80;;;2.78;;
36989;SDS011;22898;52.102;5.776;2024-02-16T10:11:27;4.20;;;2.78;;
36989;SDS011;22898;52.102;5.776;2024-02-16T10:14:00;4.07;;;2.58;;
36989;SDS011;22898;52.102;5.776;2024-02-16T10:16:27;5.15;;;2.40;;
36989;SDS011;22898;52.102;5.776;2024-02-16T10:19:03;7.82;;;2.65;;
36989;SDS011;22898;52.102;5.776;2024-02-16T10:21:30;7.57;;;2.72;;
36989;SDS011;22898;52.102;5.776;2024-02-16T10:23:57;5.60;;;2.75;;
36989;SDS011;22898;52.102;5.776;2024-02-16T10:26:27;5.25;;;2.58;;
36989;SDS011;22898;52.102;5.776;2024-02-16T10:28:54;9.00;;;2.55;;
36989;SDS011;22898;52.102;5.776;2024-02-16T10:31:22;5.10;;;2.55;;
36989;SDS011;22898;52.102;5.776;2024-02-16T10:33:56;7.78;;;2.92;;
36989;SDS011;22898;52.102;5.776;2024-02-16T10:36:31;6.07;;;2.42;;
36989;SDS011;22898;52.102;5.776;2024-02-16T10:38:58;5.38;;;2.95;;
36989;SDS011;22898;52.102;5.776;2024-02-16T10:41:28;9.00;;;2.83;;
36989;SDS011;22898;52.102;5.776;2024-02-16T10:43:54;3.92;;;2.67;;
36989;SDS011;22898;52.102;5.776;2024-02-16T10:46:21;4.43;;;2.53;;
36989;SDS011;22898;52.102;5.776;2024-02-16T10:48:48;8.10;;;3.15;;
36989;SDS011;22898;52.102;5.776;2024-02-16T10:51:13;8.57;;;3.72;;
36989;SDS011;22898;52.102;5.776;2024-02-16T10:53:43;4.40;;;2.67;;
36989;SDS011;22898;52.102;5.776;2024-02-16T10:56:10;6.63;;;3.50;;
36989;SDS011;22898;52.102;5.776;2024-02-16T10:58:36;6.93;;;3.88;;
36989;SDS011;22898;52.102;5.776;2024-02-16T11:01:09;6.35;;;3.58;;
36989;SDS011;22898;52.102;5.776;2024-02-16T11:03:38;7.45;;;2.78;;
36989;SDS011;22898;52.102;5.776;2024-02-16T11:06:14;5.82;;;3.00;;
36989;SDS011;22898;52.102;5.776;2024-02-16T11:08:41;6.07;;;3.60;;
36989;SDS011;22898;52.102;5.776;2024-02-16T11:11:07;6.07;;;3.40;;
36989;SDS011;22898;52.102;5.776;2024-02-16T11:13:36;6.85;;;3.40;;
36989;SDS011;22898;52.102;5.776;2024-02-16T11:16:03;6.43;;;3.03;;
36989;SDS011;22898;52.102;5.776;2024-02-16T11:18:36;5.90;;;3.40;;
36989;SDS011;22898;52.102;5.776;2024-02-16T11:21:03;8.35;;;3.30;;
36989;SDS011;22898;52.102;5.776;2024-02-16T11:23:29;6.15;;;3.42;;
36989;SDS011;22898;52.102;5.776;2024-02-16T11:26:05;7.70;;;3.67;;
36989;SDS011;22898;52.102;5.776;2024-02-16T11:28:36;5.63;;;3.08;;
36989;SDS011;22898;52.102;5.776;2024-02-16T11:31:02;4.13;;;3.17;;
36989;SDS011;22898;52.102;5.776;2024-02-16T11:33:29;7.97;;;3.38;;
36989;SDS011;22898;52.102;5.776;2024-02-16T11:35:56;5.63;;;3.22;;
36989;SDS011;22898;52.102;5.776;2024-02-16T11:38:26;7.88;;;3.50;;
36989;SDS011;22898;52.102;5.776;2024-02-16T11:41:02;9.98;;;3.53;;
36989;SDS011;22898;52.102;5.776;2024-02-16T11:43:29;6.90;;;3.80;;
36989;SDS011;22898;52.102;5.776;2024-02-16T11:45:55;5.32;;;2.83;;
36989;SDS011;22898;52.102;5.776;2024-02-16T11:48:22;8.38;;;3.85;;
36989;SDS011;22898;52.102;5.776;2024-02-16T11:50:49;6.32;;;3.75;;
36989;SDS011;22898;52.102;5.776;2024-02-16T11:53:18;6.45;;;3.83;;
36989;SDS011;22898;52.102;5.776;2024-02-16T11:55:48;6.07;;;3.80;;
36989;SDS011;22898;52.102;5.776;2024-02-16T11:58:18;5.80;;;3.63;;
36989;SDS011;22898;52.102;5.776;2024-02-16T12:00:48;6.80;;;3.83;;
36989;SDS011;22898;52.102;5.776;2024-02-16T12:03:19;7.13;;;3.22;;
36989;SDS011;22898;52.102;5.776;2024-02-16T12:05:52;5.80;;;3.47;;
36989;SDS011;22898;52.102;5.776;2024-02-16T12:08:20;8.95;;;3.92;;
36989;SDS011;22898;52.102;5.776;2024-02-16T12:10:50;5.20;;;3.45;;
36989;SDS011;22898;52.102;5.776;2024-02-16T12:13:19;5.28;;;3.83;;
36989;SDS011;22898;52.102;5.776;2024-02-16T12:15:49;6.47;;;3.50;;
36989;SDS011;22898;52.102;5.776;2024-02-16T12:18:25;5.95;;;3.95;;
36989;SDS011;22898;52.102;5.776;2024-02-16T12:23:23;4.85;;;3.35;;
36989;SDS011;22898;52.102;5.776;2024-02-16T12:25:49;7.38;;;3.85;;
36989;SDS011;22898;52.102;5.776;2024-02-16T12:28:14;7.57;;;3.38;;
36989;SDS011;22898;52.102;5.776;2024-02-16T12:30:40;7.35;;;4.30;;
36989;SDS011;22898;52.102;5.776;2024-02-16T12:33:06;7.18;;;3.60;;
36989;SDS011;22898;52.102;5.776;2024-02-16T12:35:31;7.65;;;4.45;;
36989;SDS011;22898;52.102;5.776;2024-02-16T12:37:57;6.70;;;3.90;;
36989;SDS011;22898;52.102;5.776;2024-02-16T12:40:22;7.85;;;4.03;;
36989;SDS011;22898;52.102;5.776;2024-02-16T12:42:48;6.82;;;3.53;;
36989;SDS011;22898;52.102;5.776;2024-02-16T12:45:14;7.22;;;3.85;;
36989;SDS011;22898;52.102;5.776;2024-02-16T12:47:41;6.78;;;4.05;;
36989;SDS011;22898;52.102;5.776;2024-02-16T12:50:07;9.10;;;4.25;;
36989;SDS011;22898;52.102;5.776;2024-02-16T12:52:32;8.60;;;4.55;;
36989;SDS011;22898;52.102;5.776;2024-02-16T12:55:00;7.50;;;4.28;;
36989;SDS011;22898;52.102;5.776;2024-02-16T12:57:25;8.30;;;4.28;;
36989;SDS011;22898;52.102;5.776;2024-02-16T12:59:53;8.90;;;4.78;;
36989;SDS011;22898;52.102;5.776;2024-02-16T13:02:19;6.97;;;3.80;;
36989;SDS011;22898;52.102;5.776;2024-02-16T13:04:45;7.20;;;3.95;;
36989;SDS011;22898;52.102;5.776;2024-02-16T13:07:11;8.02;;;4.38;;
36989;SDS011;22898;52.102;5.776;2024-02-16T13:09:36;5.95;;;4.07;;
36989;SDS011;22898;52.102;5.776;2024-02-16T13:12:02;7.40;;;3.97;;
36989;SDS011;22898;52.102;5.776;2024-02-16T13:14:28;6.85;;;3.97;;
36989;SDS011;22898;52.102;5.776;2024-02-16T13:16:54;6.97;;;3.95;;
36989;SDS011;22898;52.102;5.776;2024-02-16T13:19:20;7.93;;;4.10;;
36989;SDS011;22898;52.102;5.776;2024-02-16T13:21:46;5.15;;;2.92;;
36989;SDS011;22898;52.102;5.776;2024-02-16T13:24:12;5.82;;;3.25;;
36989;SDS011;22898;52.102;5.776;2024-02-16T13:26:37;4.05;;;2.75;;
36989;SDS011;22898;52.102;5.776;2024-02-16T13:29:03;4.93;;;3.10;;
36989;SDS011;22898;52.102;5.776;2024-02-16T13:31:29;4.30;;;2.70;;
36989;SDS011;22898;52.102;5.776;2024-02-16T13:33:55;4.70;;;2.90;;
36989;SDS011;22898;52.102;5.776;2024-02-16T13:36:20;4.65;;;2.33;;
36989;SDS011;22898;52.102;5.776;2024-02-16T13:38:46;3.30;;;1.90;;
36989;SDS011;22898;52.102;5.776;2024-02-16T13:41:12;4.40;;;2.00;;
36989;SDS011;22898;52.102;5.776;2024-02-16T13:43:37;9.45;;;2.35;;
36989;SDS011;22898;52.102;5.776;2024-02-16T13:46:03;3.00;;;2.05;;
36989;SDS011;22898;52.102;5.776;2024-02-16T13:48:29;7.70;;;2.22;;
36989;SDS011;22898;52.102;5.776;2024-02-16T13:50:55;3.08;;;2.00;;
36989;SDS011;22898;52.102;5.776;2024-02-16T13:53:21;2.13;;;1.40;;
36989;SDS011;22898;52.102;5.776;2024-02-16T13:55:48;2.72;;;1.63;;
36989;SDS011;22898;52.102;5.776;2024-02-16T13:58:14;1.70;;;1.38;;
36989;SDS011;22898;52.102;5.776;2024-02-16T14:00:40;2.67;;;1.55;;
36989;SDS011;22898;52.102;5.776;2024-02-16T14:03:09;2.47;;;1.40;;
36989;SDS011;22898;52.102;5.776;2024-02-16T14:05:39;2.55;;;1.55;;
36989;SDS011;22898;52.102;5.776;2024-02-16T14:08:06;1.92;;;1.45;;
36989;SDS011;22898;52.102;5.776;2024-02-16T14:10:36;4.15;;;1.50;;
36989;SDS011;22898;52.102;5.776;2024-02-16T14:13:02;2.08;;;1.33;;
36989;SDS011;22898;52.102;5.776;2024-02-16T14:15:27;1.75;;;1.50;;
36989;SDS011;22898;52.102;5.776;2024-02-16T14:17:53;2.42;;;1.52;;
36989;SDS011;22898;52.102;5.776;2024-02-16T14:20:19;3.25;;;1.55;;
36989;SDS011;22898;52.102;5.776;2024-02-16T14:22:46;5.03;;;1.70;;
36989;SDS011;22898;52.102;5.776;2024-02-16T14:25:12;2.30;;;1.60;;
36989;SDS011;22898;52.102;5.776;2024-02-16T14:27:38;2.30;;;1.45;;
36989;SDS011;22898;52.102;5.776;2024-02-16T14:30:04;3.75;;;1.63;;
36989;SDS011;22898;52.102;5.776;2024-02-16T14:32:31;3.60;;;1.60;;
36989;SDS011;22898;52.102;5.776;2024-02-16T14:34:56;2.03;;;1.50;;
36989;SDS011;22898;52.102;5.776;2024-02-16T14:37:22;2.25;;;1.42;;
36989;SDS011;22898;52.102;5.776;2024-02-16T14:39:48;2.05;;;1.30;;
36989;SDS011;22898;52.102;5.776;2024-02-16T14:42:13;2.17;;;1.60;;
36989;SDS011;22898;52.102;5.776;2024-02-16T14:44:39;3.70;;;1.60;;
36989;SDS011;22898;52.102;5.776;2024-02-16T14:47:05;3.78;;;1.70;;